Portada
METAR-TAF:

METAR-TAF

Aeroports :

Txità, Rússia

latitud: 52-05N, longitud: 113-29E, altitud: 685 m

Observació

L'informe es va fer fa 15 minuts, a les 19:00 UTC
Vent 4 kt amb direcció variable
Temperatura -3°C
Humitat 50%
Pressió 1011 hPa
Visibilitat 10 km o més

METAR: UIAA 291900Z VRB02MPS 9999 NSC M03/M12 Q1011 R29/CLRD60 NOSIG RMK QFE700/0933

Hora: 04:15 (19:15 UTC)

Pronòstic

L'informe es va fer fa 2 hores i 15 minuts, a les 17:00 UTC
Pronòstic vàlid del 29 a les 18 UTC al 30 a les 18 UTC
Vent 6 kt del Sud-Oest
Visibilitat 10 km o més
Núvols disperses a una alçada de 4000 ft, Cumulonimbus.
Temporalment
l' 29 a les 18 UTC al 30 a les 06 UTC
Vent 10 kt del Oest amb ràfegues de 19 kt
Temporalment
l' 30 a les 06 UTC al 30 a les 12 UTC
Vent 16 kt del Oest/Nord-Oest amb ràfegues de 29 kt

TAF: UIAA 291700Z 2918/3018 22003MPS 9999 SCT040CB TEMPO 2918/3006 28005G10MPS TEMPO 3006/3012 29008G15MPS

Observacions i pronòstics meteorològics de més de 4000 aeroports (METAR i TAF).

Les estacions disponibles són els punts grocs i vermells al mapa.

Posi el ratolí al punt desitjat per veure el nom de l'estació.

Feu clic per veure les observacions i els pronòstics meteorològics.

Per canviar el mapa: feu clic els botons verds amb una creu de color negre per apropar; al botó verd amb un guió per allunyar la imatge; o en les fletxes verdes per a mapes adjacents.


METAR-TAF: